Time;durP1;ratioP1;P1;durP2;ratioP2;P2;SDS_P1;SDS_P2;PMS_P1;PMS_P2;Temp;Humidity;BMP_temperature;BMP_pressure;BME280_temperature;BME280_humidity;BME280_pressure;Samples;Min_cycle;Max_cycle;Signal;HPM_P1;HPM_P2
2022/11/07 02:27:11;;;;;;;9.50;3.50;;;;;;;24.64;40.93;100730.25;5072133;28;20421;-60
2022/11/07 02:29:41;;;;;;;9.98;2.78;;;;;;;24.62;41.14;100716.22;5093575;28;20040;-57
2022/11/07 02:32:11;;;;;;;9.00;2.40;;;;;;;24.60;41.29;100717.97;5093911;28;20024;-60
2022/11/07 02:34:40;;;;;;;13.57;3.03;;;;;;;24.64;40.92;100721.47;5093648;28;20031;-60
2022/11/07 02:37:19;;;;;;;10.57;3.20;;;;;;;24.66;40.76;100717.97;5092505;28;20024;-61
2022/11/07 02:39:48;;;;;;;8.70;3.00;;;;;;;24.71;40.70;100710.19;5092352;28;20043;-60
2022/11/07 02:42:15;;;;;;;12.32;3.38;;;;;;;24.68;41.09;100716.25;5093683;28;20358;-60
2022/11/07 02:44:44;;;;;;;9.27;3.05;;;;;;;24.64;40.76;100708.34;5075323;28;20085;-60
2022/11/07 02:47:12;;;;;;;10.60;3.20;;;;;;;24.60;41.00;100704.84;5093294;28;20045;-60
2022/11/07 02:49:41;;;;;;;10.10;3.20;;;;;;;24.61;40.62;100700.47;5093121;28;20032;-59
2022/11/07 02:52:09;;;;;;;10.23;2.88;;;;;;;24.67;41.09;100706.63;5091921;28;20031;-60
2022/11/07 02:54:38;;;;;;;13.82;3.92;;;;;;;24.67;40.88;100701.38;5093334;28;20013;-60
2022/11/07 02:57:06;;;;;;;11.50;2.95;;;;;;;24.65;41.11;100708.38;5092249;28;20481;-59
2022/11/07 02:59:34;;;;;;;10.07;3.10;;;;;;;24.62;41.20;100716.22;5093541;28;20016;-60
2022/11/07 03:02:03;;;;;;;10.88;3.70;;;;;;;24.69;40.77;100717.16;5092011;28;20122;-59
2022/11/07 03:04:31;;;;;;;12.95;3.50;;;;;;;24.68;40.82;100712.75;5093200;28;20412;-60
2022/11/07 03:06:59;;;;;;;11.13;3.95;;;;;;;24.64;41.16;100711.88;5091642;28;20111;-59
2022/11/07 03:09:31;;;;;;;12.27;3.58;;;;;;;24.66;40.77;100715.34;5092955;28;20051;-59
2022/11/07 03:11:59;;;;;;;12.02;3.65;;;;;;;24.64;40.70;100701.38;5093011;28;20469;-60
2022/11/07 03:14:28;;;;;;;9.73;3.30;;;;;;;24.64;40.92;100701.38;5092980;28;20477;-59
2022/11/07 03:16:56;;;;;;;12.77;3.60;;;;;;;24.68;40.87;100704.91;5092817;28;20039;-56
2022/11/07 03:19:25;;;;;;;10.55;3.10;;;;;;;24.66;40.60;100704.88;5092632;28;20075;-60
2022/11/07 03:21:53;;;;;;;9.48;2.72;;;;;;;24.57;40.98;100697.81;5074980;28;20020;-60
2022/11/07 03:24:22;;;;;;;12.05;3.70;;;;;;;24.61;41.18;100705.72;5092872;28;20055;-60
2022/11/07 03:26:51;;;;;;;11.25;3.17;;;;;;;24.64;40.99;100705.75;5091132;28;20016;-59
2022/11/07 03:29:19;;;;;;;8.35;2.92;;;;;;;24.65;41.10;100702.25;5091847;28;20024;-60
2022/11/07 03:31:48;;;;;;;10.32;2.92;;;;;;;24.65;40.87;100697.00;5091216;28;20036;-59
2022/11/07 03:34:36;;;;;;;10.32;3.13;;;;;;;24.60;40.90;100694.34;5092703;28;20110;-61
2022/11/07 03:37:05;;;;;;;11.30;2.90;;;;;;;24.62;40.96;100687.38;5092698;28;20081;-60
2022/11/07 03:39:33;;;;;;;10.30;2.78;;;;;;;24.63;40.94;100697.00;5092566;28;20420;-60
2022/11/07 03:42:02;;;;;;;11.02;3.33;;;;;;;24.62;40.79;100673.38;5091462;28;20370;-60
2022/11/07 03:44:30;;;;;;;11.27;3.78;;;;;;;24.56;41.07;100672.50;5091273;28;20036;-60
2022/11/07 03:46:59;;;;;;;13.63;3.42;;;;;;;24.54;41.07;100676.84;5092535;28;20115;-60
2022/11/07 03:49:28;;;;;;;9.43;2.60;;;;;;;24.56;40.98;100675.13;5091173;28;20027;-59
2022/11/07 03:51:56;;;;;;;13.35;3.83;;;;;;;24.60;40.83;100673.38;5092584;28;20479;-60
2022/11/07 03:54:24;;;;;;;9.95;3.30;;;;;;;24.52;41.23;100672.44;5092677;28;20454;-60
2022/11/07 03:56:53;;;;;;;10.05;3.17;;;;;;;24.58;41.11;100680.34;5091039;28;20479;-60
2022/11/07 03:59:22;;;;;;;10.40;2.72;;;;;;;24.58;41.11;100681.22;5092358;28;20024;-59
2022/11/07 04:01:50;;;;;;;12.05;3.42;;;;;;;24.53;40.70;100672.47;5091138;28;20027;-60
2022/11/07 04:04:19;;;;;;;10.95;2.92;;;;;;;24.58;41.08;100678.59;5091077;28;20127;-60
2022/11/07 04:06:47;;;;;;;7.40;2.85;;;;;;;24.60;40.84;100678.63;5092068;28;20028;-60
2022/11/07 04:09:16;;;;;;;12.88;3.33;;;;;;;24.50;41.19;100677.69;5091202;28;20017;-60
2022/11/07 04:17:19;;;;;;;10.98;3.05;;;;;;;24.48;41.06;100673.31;5091583;28;20028;-60
2022/11/07 04:19:51;;;;;;;12.07;2.97;;;;;;;24.48;41.42;100663.69;5091090;28;20036;-60
2022/11/07 04:22:20;;;;;;;15.50;3.95;;;;;;;24.46;41.05;100665.41;5092318;28;20039;-60
2022/11/07 04:24:48;;;;;;;9.32;3.15;;;;;;;24.49;41.15;100667.19;5091134;28;20492;-56
2022/11/07 04:27:58;;;;;;;10.88;2.95;;;;;;;24.55;41.09;100665.50;5091735;28;20048;-59
2022/11/07 04:30:28;;;;;;;12.73;2.90;;;;;;;24.55;40.92;100661.97;5088537;28;20064;-60
2022/11/07 04:32:57;;;;;;;11.95;3.97;;;;;;;24.56;40.88;100668.97;5093748;28;20028;-59
2022/11/07 04:35:28;;;;;;;12.93;3.35;;;;;;;24.51;41.09;100671.56;5095992;28;20024;-60
2022/11/07 04:37:57;;;;;;;9.80;3.25;;;;;;;24.49;40.99;100675.06;5094660;28;20165;-60
2022/11/07 04:40:26;;;;;;;14.18;3.65;;;;;;;24.49;41.01;100670.69;5094659;28;20024;-60
2022/11/07 04:42:55;;;;;;;10.60;3.17;;;;;;;24.53;40.91;100668.94;5095714;28;20020;-60
2022/11/07 04:45:23;;;;;;;11.25;3.33;;;;;;;24.48;41.23;100668.06;5095997;28;20024;-60
2022/11/07 04:47:52;;;;;;;10.80;3.00;;;;;;;24.42;41.27;100669.78;5095620;28;20024;-60
2022/11/07 04:50:21;;;;;;;10.40;2.90;;;;;;;24.51;40.99;100668.06;5095755;28;20119;-60
2022/11/07 04:52:49;;;;;;;10.77;3.22;;;;;;;24.37;40.93;100642.63;5094193;28;20603;-60
2022/11/07 04:55:22;;;;;;;18.05;4.30;;;;;;;24.42;41.12;100675.00;5095702;28;20020;-60
2022/11/07 04:57:51;;;;;;;10.23;2.83;;;;;;;24.42;41.31;100668.88;5095840;28;20020;-54
2022/11/07 05:00:20;;;;;;;9.52;2.53;;;;;;;24.37;41.41;100663.63;5093779;28;20027;-59
2022/11/07 05:02:49;;;;;;;9.23;3.13;;;;;;;24.41;41.23;100673.25;5095628;28;20028;-59
2022/11/07 05:05:18;;;;;;;11.82;2.97;;;;;;;24.39;41.24;100679.38;5095325;28;20024;-60
2022/11/07 05:07:47;;;;;;;9.43;2.92;;;;;;;24.45;41.38;100683.78;5095261;28;20032;-59
2022/11/07 05:10:19;;;;;;;9.90;3.05;;;;;;;24.38;41.35;100681.09;5095378;28;20024;-59
2022/11/07 05:12:48;;;;;;;9.60;2.65;;;;;;;24.39;41.21;100689.84;5094389;28;20035;-59
2022/11/07 05:15:17;;;;;;;9.52;2.88;;;;;;;24.37;41.26;100681.97;5095280;28;20093;-60
2022/11/07 05:17:45;;;;;;;8.20;3.35;;;;;;;24.40;41.30;100687.22;5095231;28;20024;-57
2022/11/07 05:20:27;;;;;;;11.02;2.75;;;;;;;24.37;41.45;100687.22;5095187;28;20385;-60
2022/11/07 05:23:35;;;;;;;7.82;2.50;;;;;;;24.35;41.09;100682.84;5095418;28;20024;-59
2022/11/07 05:25:44;;;;;;;12.15;3.03;;;;;;;24.39;41.45;100675.00;5089225;28;20465;-59
2022/11/07 05:28:15;;;;;;;8.63;3.00;;;;;;;24.38;41.34;100673.22;5094743;28;20044;-60
2022/11/07 05:30:44;;;;;;;11.43;2.97;;;;;;;24.41;41.41;100680.22;5093655;28;20028;-60
2022/11/07 05:33:14;;;;;;;11.23;2.97;;;;;;;24.42;41.19;100680.25;5094669;28;20116;-60
2022/11/07 05:35:43;;;;;;;12.30;3.35;;;;;;;24.37;41.50;100696.84;5095007;28;20099;-60
2022/11/07 05:38:12;;;;;;;10.55;3.28;;;;;;;24.39;41.17;100693.34;5094921;28;20055;-60
2022/11/07 05:40:41;;;;;;;8.90;2.95;;;;;;;24.37;41.47;100686.34;5094597;28;20019;-60
2022/11/07 05:43:12;;;;;;;11.05;3.38;;;;;;;24.18;41.65;100666.97;5094217;28;20024;-60
2022/11/07 05:45:41;;;;;;;9.18;2.17;;;;;;;24.34;41.48;100696.81;5094716;28;20082;-60
2022/11/07 05:48:29;;;;;;;11.55;2.83;;;;;;;24.35;41.15;100691.56;5094542;28;20024;-61
2022/11/07 05:50:58;;;;;;;8.48;2.88;;;;;;;24.27;41.13;100688.03;5094708;28;20059;-60
2022/11/07 05:53:27;;;;;;;10.50;3.60;;;;;;;24.30;41.54;100680.19;5094629;28;20059;-60
2022/11/07 05:55:56;;;;;;;13.60;3.45;;;;;;;24.32;41.42;100675.84;5094300;28;20024;-60
2022/11/07 05:58:25;;;;;;;9.73;2.45;;;;;;;24.38;41.24;100677.63;5094467;28;20032;-60
2022/11/07 06:00:53;;;;;;;7.78;2.65;;;;;;;24.35;41.28;100680.22;5094524;28;20095;-60
2022/11/07 06:03:22;;;;;;;8.50;2.75;;;;;;;24.30;41.32;100666.19;5094417;28;20085;-60
2022/11/07 06:05:50;;;;;;;9.50;2.45;;;;;;;24.31;41.51;100670.56;5094185;28;20375;-60
2022/11/07 06:08:19;;;;;;;7.68;2.30;;;;;;;24.18;41.55;100666.97;5094059;28;20040;-59
2022/11/07 06:10:46;;;;;;;9.57;2.58;;;;;;;24.16;41.65;100666.97;5090469;28;20081;-60
2022/11/07 06:13:16;;;;;;;8.75;2.38;;;;;;;24.21;41.79;100662.66;5074053;28;20036;-60
2022/11/07 06:15:45;;;;;;;7.03;2.35;;;;;;;24.29;41.61;100662.69;5072579;28;20032;-60
2022/11/07 06:18:19;;;;;;;8.15;2.50;;;;;;;24.27;41.77;100667.06;5072537;28;20041;-60
2022/11/07 06:20:49;;;;;;;10.15;2.50;;;;;;;24.28;41.81;100669.66;5073688;28;20115;-60
2022/11/07 06:23:18;;;;;;;8.18;2.65;;;;;;;24.28;41.89;100666.19;5073639;28;20104;-60
2022/11/07 06:25:46;;;;;;;7.05;2.40;;;;;;;24.34;41.37;100665.34;5073258;28;20077;-60
2022/11/07 06:28:14;;;;;;;7.63;2.53;;;;;;;24.34;41.41;100667.97;5073298;28;20052;-60
2022/11/07 06:30:43;;;;;;;10.55;2.92;;;;;;;24.34;41.41;100667.97;5073409;28;20499;-60
2022/11/07 06:33:15;;;;;;;7.03;2.15;;;;;;;24.31;41.79;100668.84;5072045;28;20029;-60
2022/11/07 06:35:43;;;;;;;8.05;3.10;;;;;;;24.22;41.76;100646.06;5072970;28;20024;-55
2022/11/07 06:38:12;;;;;;;8.52;2.60;;;;;;;24.35;41.53;100659.25;5071399;28;20052;-58
2022/11/07 06:40:41;;;;;;;10.05;2.47;;;;;;;24.35;41.85;100661.84;5072750;28;20517;-52
2022/11/07 06:43:16;;;;;;;9.75;2.72;;;;;;;24.36;41.58;100654.00;5073209;28;20020;-54
2022/11/07 06:45:44;;;;;;;9.90;2.47;;;;;;;24.30;41.81;100658.31;5073164;28;20025;-54
2022/11/07 06:48:12;;;;;;;9.40;2.95;;;;;;;24.37;41.27;100663.63;5054869;28;20569;-58
2022/11/07 06:50:40;;;;;;;13.27;2.60;;;;;;;24.33;41.76;100653.97;5072991;28;20029;-60
2022/11/07 06:53:10;;;;;;;11.70;3.05;;;;;;;24.38;41.52;100662.75;5071111;28;20402;-60
2022/11/07 06:55:39;;;;;;;9.73;2.60;;;;;;;24.39;41.38;100659.25;5068785;28;20489;-60
2022/11/07 06:58:08;;;;;;;10.55;2.95;;;;;;;24.33;41.78;100659.22;5072530;28;20496;-57
2022/11/07 07:00:36;;;;;;;8.55;2.83;;;;;;;24.33;41.73;100655.72;5069962;28;20102;-60
2022/11/07 07:03:05;;;;;;;12.50;3.13;;;;;;;24.30;41.60;100653.97;5072754;28;20099;-60
2022/11/07 07:05:34;;;;;;;12.50;3.72;;;;;;;24.38;41.82;100661.88;5072763;28;20025;-59
2022/11/07 07:08:03;;;;;;;11.05;3.03;;;;;;;24.37;41.99;100661.00;5072243;28;20036;-60
2022/11/07 07:10:34;;;;;;;13.15;3.80;;;;;;;24.35;41.96;100656.63;5072314;28;20029;-55
2022/11/07 07:13:03;;;;;;;13.65;3.53;;;;;;;24.37;41.41;100654.88;5072752;28;20024;-61
2022/11/07 07:15:32;;;;;;;9.65;3.13;;;;;;;24.29;41.59;100646.97;5072480;28;20024;-60
2022/11/07 07:18:00;;;;;;;13.10;3.70;;;;;;;24.31;41.43;100663.59;5072593;28;20041;-50
2022/11/07 07:20:29;;;;;;;12.77;3.65;;;;;;;24.31;41.88;100666.22;5072493;28;20060;-60
2022/11/07 07:22:57;;;;;;;11.93;3.85;;;;;;;24.26;41.86;100671.41;5072303;28;20500;-60
2022/11/07 07:25:26;;;;;;;21.00;4.05;;;;;;;24.24;41.93;100665.25;5071266;28;20032;-60
2022/11/07 07:27:54;;;;;;;11.00;3.10;;;;;;;24.30;41.50;100669.69;5072165;28;20052;-61
2022/11/07 07:30:22;;;;;;;14.98;3.50;;;;;;;24.35;41.62;100682.84;5071786;28;20523;-60
2022/11/07 07:32:51;;;;;;;11.25;3.47;;;;;;;24.32;41.74;100685.44;5072283;28;20036;-60
2022/11/07 07:35:19;;;;;;;14.07;3.72;;;;;;;24.31;41.65;100684.56;5072151;28;20017;-61
2022/11/07 07:37:50;;;;;;;13.57;3.10;;;;;;;24.30;42.01;100687.16;5072269;28;20025;-60
2022/11/07 07:40:19;;;;;;;15.63;4.13;;;;;;;24.26;41.89;100684.50;5072407;28;20090;-60
2022/11/07 07:42:48;;;;;;;18.92;3.70;;;;;;;24.20;41.79;100678.34;5072262;28;20024;-61
2022/11/07 07:45:17;;;;;;;15.15;3.95;;;;;;;24.27;42.12;100681.03;5071790;28;20104;-60
2022/11/07 07:47:45;;;;;;;13.55;4.20;;;;;;;24.32;41.85;100686.31;5071833;28;20397;-60
2022/11/07 07:50:13;;;;;;;11.77;3.35;;;;;;;24.33;41.81;100695.06;5071851;28;20038;-60
2022/11/07 07:52:42;;;;;;;11.38;3.70;;;;;;;24.32;41.93;100694.19;5070778;28;20039;-60
2022/11/07 07:55:10;;;;;;;12.45;3.42;;;;;;;24.37;41.58;100702.94;5071050;28;20462;-59
2022/11/07 07:57:40;;;;;;;9.93;3.13;;;;;;;24.34;41.71;100702.91;5072017;28;20089;-56
2022/11/07 08:00:10;;;;;;;13.15;4.03;;;;;;;24.23;42.00;100705.47;5070945;28;20078;-60
2022/11/07 08:02:42;;;;;;;10.73;3.65;;;;;;;24.27;41.89;100719.47;5072200;28;20024;-60
2022/11/07 08:05:12;;;;;;;14.50;3.42;;;;;;;24.34;41.79;100718.63;5072181;28;20028;-59
2022/11/07 08:07:51;;;;;;;12.90;3.75;;;;;;;24.27;42.19;100732.59;5075497;28;20126;-60
2022/11/07 08:10:20;;;;;;;11.00;3.58;;;;;;;24.27;41.76;100722.97;5076247;28;20115;-60
2022/11/07 08:12:50;;;;;;;11.63;3.47;;;;;;;24.26;42.32;100733.44;5076461;28;20107;-60
2022/11/07 08:15:19;;;;;;;10.32;3.58;;;;;;;24.22;42.27;100719.44;5076267;28;20017;-60
2022/11/07 08:17:48;;;;;;;8.73;2.63;;;;;;;24.27;42.07;100724.72;5076135;28;21094;-60
2022/11/07 08:20:19;;;;;;;9.80;3.17;;;;;;;24.20;42.22;100717.66;5075901;28;20393;-60
2022/11/07 08:23:30;;;;;;;8.13;2.95;;;;;;;24.23;42.23;100717.69;5074370;28;20020;-60
2022/11/07 08:26:03;;;;;;;11.77;2.90;;;;;;;24.22;42.21;100716.81;5075164;28;20028;-60
2022/11/07 08:28:34;;;;;;;9.80;2.83;;;;;;;24.24;42.21;100728.16;5074314;28;20053;-60
2022/11/07 08:31:06;;;;;;;7.53;2.70;;;;;;;24.23;42.12;100725.56;5075978;28;20539;-59
2022/11/07 08:33:36;;;;;;;10.15;2.60;;;;;;;24.22;41.92;100715.94;5075968;28;20112;-60
2022/11/07 08:36:06;;;;;;;9.93;2.92;;;;;;;24.27;41.79;100724.72;5075529;28;20100;-57
2022/11/07 08:38:53;;;;;;;9.70;2.28;;;;;;;24.17;42.17;100717.63;5075762;28;20017;-57
2022/11/07 08:41:22;;;;;;;10.02;2.55;;;;;;;24.17;42.42;100723.75;5075737;28;20108;-60
2022/11/07 08:43:51;;;;;;;9.40;3.08;;;;;;;24.22;42.26;100732.56;5073942;28;20404;-58
2022/11/07 08:46:18;;;;;;;7.38;2.10;;;;;;;24.27;41.99;100729.97;5075247;28;20028;-60
2022/11/07 08:48:47;;;;;;;12.15;2.80;;;;;;;24.26;41.93;100734.31;5075207;28;20397;-59
2022/11/07 08:51:15;;;;;;;6.68;2.05;;;;;;;24.22;42.29;100727.31;5075253;28;20093;-60
2022/11/07 08:53:44;;;;;;;6.68;2.40;;;;;;;24.25;42.15;100732.56;5075622;28;20044;-60
2022/11/07 08:56:12;;;;;;;8.57;2.42;;;;;;;24.22;42.25;100731.66;5075631;28;20016;-60
2022/11/07 08:59:00;;;;;;;12.77;3.47;;;;;;;24.33;41.90;100737.84;5074344;28;20082;-59
2022/11/07 09:02:13;;;;;;;9.90;3.05;;;;;;;24.30;41.99;100736.97;5075270;28;20020;-59
2022/11/07 09:05:02;;;;;;;7.68;1.90;;;;;;;24.27;42.46;100745.69;5075139;28;20039;-59
2022/11/07 09:07:30;;;;;;;10.32;2.67;;;;;;;24.23;42.15;100741.28;5074996;28;20027;-60
2022/11/07 09:09:58;;;;;;;8.45;2.50;;;;;;;24.29;42.25;100743.97;5075230;28;20090;-60
2022/11/07 09:12:26;;;;;;;8.52;2.45;;;;;;;24.23;42.20;100749.16;5075169;28;20393;-59
2022/11/07 09:14:55;;;;;;;11.10;2.75;;;;;;;24.29;42.24;100743.97;5074827;28;20033;-60
2022/11/07 09:17:23;;;;;;;9.48;2.58;;;;;;;24.23;42.27;100750.03;5074622;28;20025;-60
2022/11/07 09:19:52;;;;;;;9.18;2.30;;;;;;;24.26;42.32;100744.78;5074563;28;20024;-60
2022/11/07 09:22:20;;;;;;;11.90;2.90;;;;;;;24.25;42.46;100744.78;5075027;28;20059;-60
2022/11/07 09:24:48;;;;;;;7.30;2.92;;;;;;;24.36;42.34;100744.88;5074921;28;20063;-59
2022/11/07 09:27:17;;;;;;;10.50;2.78;;;;;;;24.32;42.81;100746.63;5074422;28;20555;-52
2022/11/07 09:29:50;;;;;;;9.30;3.03;;;;;;;24.32;42.72;100749.25;5074687;28;20062;-60
2022/11/07 09:32:22;;;;;;;14.52;3.47;;;;;;;24.30;42.84;100748.34;5074831;28;20025;-60
2022/11/07 09:34:50;;;;;;;9.55;2.75;;;;;;;24.34;42.71;100749.25;5074720;28;20028;-60
2022/11/07 09:37:17;;;;;;;12.20;3.13;;;;;;;24.34;42.76;100750.09;5074392;28;20061;-60
2022/11/07 09:39:45;;;;;;;10.40;3.33;;;;;;;24.24;42.67;100749.13;5074670;28;20021;-60
2022/11/07 09:42:22;;;;;;;11.13;3.53;;;;;;;24.31;42.32;100752.72;5074816;28;20043;-59
2022/11/07 09:44:56;;;;;;;14.80;3.75;;;;;;;24.33;42.60;100758.81;5073045;28;20025;-60
2022/11/07 09:47:36;;;;;;;9.65;3.33;;;;;;;24.30;42.91;100755.31;5057087;28;20074;-60
2022/11/07 09:50:11;;;;;;;14.80;3.20;;;;;;;24.33;42.81;100752.72;5073272;28;20473;-60
2022/11/07 09:53:01;;;;;;;11.18;3.42;;;;;;;24.35;42.25;100751.84;5074521;28;20024;-60
2022/11/07 09:55:33;;;;;;;13.70;3.63;;;;;;;24.41;42.29;100748.41;5073900;28;20111;-60
2022/11/07 09:58:14;;;;;;;12.80;4.13;;;;;;;24.37;42.38;100757.13;5056442;28;20021;-59
2022/11/07 10:00:43;;;;;;;10.45;3.15;;;;;;;24.41;42.51;100751.03;5074346;28;20046;-55
2022/11/07 10:03:12;;;;;;;12.77;3.42;;;;;;;24.39;42.46;100745.78;5072923;28;20134;-60
2022/11/07 10:06:01;;;;;;;11.27;3.78;;;;;;;24.37;42.60;100751.88;5073943;28;20052;-60
2022/11/07 10:08:34;;;;;;;13.60;4.00;;;;;;;24.42;42.46;100743.19;5066479;28;20029;-60
2022/11/07 10:11:19;;;;;;;10.05;3.28;;;;;;;24.32;42.32;100732.63;5073775;28;20083;-59
2022/11/07 10:13:54;;;;;;;14.15;3.30;;;;;;;24.34;42.58;100744.00;5074104;28;20016;-59
2022/11/07 10:16:32;;;;;;;13.82;2.95;;;;;;;24.35;42.21;100746.63;5072868;28;20017;-60
2022/11/07 10:19:11;;;;;;;14.07;3.15;;;;;;;24.46;42.28;100743.22;5073650;28;20028;-59
2022/11/07 10:21:46;;;;;;;13.48;3.38;;;;;;;24.42;42.31;100737.94;5072468;28;20032;-60
2022/11/07 10:24:32;;;;;;;;;;;;;;;24.45;42.48;100741.47;5073895;28;20107;-60
2022/11/07 10:27:01;;;;;;;10.15;2.92;;;;;;;24.47;42.06;100740.59;5066277;28;19919;-58
2022/11/07 10:29:37;;;;;;;8.05;2.90;;;;;;;24.47;42.28;100737.09;5072469;28;20055;-59
2022/11/07 10:32:16;;;;;;;14.05;4.22;;;;;;;24.30;42.30;100726.47;5072272;28;20454;-60
2022/11/07 10:34:49;;;;;;;15.30;4.10;;;;;;;24.35;42.55;100741.38;5073425;28;20036;-60
2022/11/07 10:37:18;;;;;;;10.65;3.40;;;;;;;24.46;42.50;100732.72;5072358;28;20111;-60
2022/11/07 10:39:47;;;;;;;12.02;3.72;;;;;;;24.48;42.24;100731.00;5072136;28;20505;-59
2022/11/07 10:42:36;;;;;;;8.93;3.20;;;;;;;24.45;42.27;100744.94;5073265;28;20374;-59
2022/11/07 10:45:10;;;;;;;14.65;4.03;;;;;;;24.46;42.39;100740.59;5073166;28;20029;-59
2022/11/07 10:47:40;;;;;;;10.25;3.20;;;;;;;24.41;42.56;100735.28;5071946;28;20036;-60
2022/11/07 10:50:27;;;;;;;14.18;3.50;;;;;;;24.40;42.50;100734.44;5073100;28;20032;-60
2022/11/07 10:52:58;;;;;;;11.60;3.70;;;;;;;24.49;42.36;100733.63;5073055;28;20085;-60
2022/11/07 10:55:27;;;;;;;13.13;4.43;;;;;;;24.48;42.22;100731.88;5072840;28;20501;-60
2022/11/07 11:01:37;;;;;;;14.90;4.07;;;;;;;24.39;42.85;100735.28;5071079;28;20123;-60
2022/11/07 11:04:06;;;;;;;11.05;3.35;;;;;;;24.38;42.61;100733.53;5072606;28;20028;-59
2022/11/07 11:06:35;;;;;;;16.88;4.22;;;;;;;24.41;42.53;100725.69;5072799;28;20107;-58
2022/11/07 11:09:17;;;;;;;14.88;3.78;;;;;;;24.30;42.84;100722.13;5072916;28;20032;-59
2022/11/07 11:11:50;;;;;;;17.60;4.03;;;;;;;24.43;42.91;100729.22;5071594;28;20036;-60
2022/11/07 11:14:21;;;;;;;14.32;4.25;;;;;;;24.45;42.75;100725.72;5071429;28;20056;-60
2022/11/07 11:16:54;;;;;;;12.98;4.30;;;;;;;24.48;42.65;100721.38;5072703;28;20040;-60
2022/11/07 11:19:28;;;;;;;12.20;3.72;;;;;;;24.39;42.61;100706.44;5055092;28;20115;-60
2022/11/07 11:21:58;;;;;;;13.97;4.40;;;;;;;24.45;42.56;100725.72;5072495;28;20499;-60
2022/11/07 11:24:30;;;;;;;14.23;3.75;;;;;;;24.37;42.92;100713.44;5072724;28;20078;-60
2022/11/07 11:27:03;;;;;;;13.68;3.85;;;;;;;24.47;42.96;100708.25;5072151;28;20035;-60
2022/11/07 11:29:40;;;;;;;13.40;4.30;;;;;;;24.46;42.95;100715.22;5071363;28;20052;-60
2022/11/07 11:32:25;;;;;;;13.70;3.80;;;;;;;24.50;42.94;100700.38;5071383;28;20405;-60
2022/11/07 11:35:06;;;;;;;15.48;4.13;;;;;;;24.50;42.57;100697.78;5072648;28;20021;-52
2022/11/07 11:37:38;;;;;;;23.20;5.43;;;;;;;24.41;43.14;100698.59;5071459;28;20099;-59
2022/11/07 11:40:15;;;;;;;24.67;5.68;;;;;;;24.45;42.96;100702.13;5072581;28;20484;-60
2022/11/07 11:42:43;;;;;;;29.48;4.85;;;;;;;24.43;42.93;100695.13;5070919;28;20074;-61
2022/11/07 11:45:39;;;;;;;25.13;5.07;;;;;;;24.43;43.29;100687.25;5071991;28;20025;-59
2022/11/07 11:48:24;;;;;;;19.95;4.35;;;;;;;24.47;42.90;100672.41;5070967;28;20027;-59
2022/11/07 11:51:13;;;;;;;24.20;4.43;;;;;;;24.45;43.41;100668.03;5072294;28;20085;-59
2022/11/07 11:53:46;;;;;;;23.77;4.78;;;;;;;24.51;43.25;100666.34;5070886;28;20044;-60
2022/11/07 11:56:38;;;;;;;21.63;4.90;;;;;;;24.50;43.43;100666.31;5072331;28;20460;-60
2022/11/07 11:59:36;;;;;;;19.77;5.18;;;;;;;24.51;43.09;100654.94;5070981;28;20024;-60
2022/11/07 12:02:37;;;;;;;16.73;4.60;;;;;;;24.46;43.35;100640.97;5062922;28;20079;-60
2022/11/07 12:05:14;;;;;;;24.27;5.45;;;;;;;24.53;43.40;100641.00;5072227;28;20032;-60
2022/11/07 12:08:06;;;;;;;17.48;5.03;;;;;;;24.51;43.58;100653.22;5072248;28;20032;-60
2022/11/07 12:10:54;;;;;;;20.67;4.45;;;;;;;24.51;43.33;100652.31;5072009;28;20024;-60
2022/11/07 12:13:54;;;;;;;18.48;5.00;;;;;;;24.47;43.66;100642.72;5068629;28;20048;-59
2022/11/07 12:16:31;;;;;;;21.08;5.50;;;;;;;24.54;43.37;100632.25;5068324;28;20037;-57
2022/11/07 12:19:37;;;;;;;22.20;4.93;;;;;;;24.54;43.36;100627.03;5071886;28;20536;-60
2022/11/07 12:22:14;;;;;;;19.65;4.70;;;;;;;24.63;43.05;100634.06;5062438;28;20049;-60
2022/11/07 12:24:47;;;;;;;16.13;4.45;;;;;;;24.60;43.33;100626.16;5054287;28;20062;-60
2022/11/07 12:27:36;;;;;;;18.10;5.10;;;;;;;24.61;43.07;100630.56;5071362;28;20045;-62
2022/11/07 12:30:42;;;;;;;15.88;4.43;;;;;;;24.46;43.34;100626.09;5067738;28;20045;-61
2022/11/07 12:33:33;;;;;;;21.88;5.18;;;;;;;24.49;43.54;100627.88;5067717;28;20037;-61
2022/11/07 12:36:22;;;;;;;19.75;4.72;;;;;;;24.52;43.60;100618.25;5072074;28;20021;-61
2022/11/07 12:39:30;;;;;;;39.97;7.30;;;;;;;24.57;43.41;100618.28;5068045;28;20041;-60
2022/11/07 12:45:47;;;;;;;127.38;15.15;;;;;;;24.66;43.20;100618.31;5048063;28;20102;-59
2022/11/07 12:48:49;;;;;;;95.53;14.52;;;;;;;24.71;42.75;100605.28;5035455;28;20048;-60
2022/11/07 12:51:27;;;;;;;116.78;16.30;;;;;;;24.70;42.97;100601.75;5049390;28;20037;-60
2022/11/07 12:54:15;;;;;;;104.35;14.43;;;;;;;24.79;43.01;100608.78;5051141;28;20148;-60
2022/11/07 12:57:04;;;;;;;113.25;13.68;;;;;;;24.76;42.69;100589.53;5049950;28;20448;-60
2022/11/07 12:59:34;;;;;;;86.68;13.80;;;;;;;24.85;42.51;100584.31;5053163;28;20033;-60
2022/11/07 13:02:15;;;;;;;85.28;14.38;;;;;;;24.79;42.75;100584.31;5053240;28;20090;-59
2022/11/07 13:04:49;;;;;;;84.90;13.18;;;;;;;24.85;42.81;100585.22;5036149;28;20083;-59
2022/11/07 13:07:22;;;;;;;63.63;11.20;;;;;;;24.83;42.81;100586.06;5052974;28;20054;-57
2022/11/07 13:09:54;;;;;;;74.50;12.73;;;;;;;24.79;43.06;100592.19;5052571;28;20037;-60
2022/11/07 13:12:37;;;;;;;61.70;10.00;;;;;;;24.78;43.02;100587.81;5050707;28;20058;-60
2022/11/07 13:15:24;;;;;;;59.85;8.57;;;;;;;24.78;43.25;100572.94;5032815;28;20037;-60
2022/11/07 13:17:51;;;;;;;48.25;8.88;;;;;;;24.77;43.23;100571.19;5080139;28;20054;-59
2022/11/07 13:20:22;;;;;;;48.90;9.10;;;;;;;24.72;43.34;100568.53;5085163;28;20362;-60
2022/11/07 13:22:51;;;;;;;53.42;8.65;;;;;;;24.71;43.28;100558.91;5079621;28;20099;-59
2022/11/07 13:25:18;;;;;;;50.83;7.97;;;;;;;24.69;43.08;100563.25;5084900;28;20115;-60
2022/11/07 13:27:57;;;;;;;35.65;6.43;;;;;;;24.66;43.33;100559.75;5081743;28;20048;-54
2022/11/07 13:30:38;;;;;;;33.85;8.13;;;;;;;24.63;43.31;100557.09;5082737;28;20044;-46
2022/11/07 13:33:07;;;;;;;43.25;7.60;;;;;;;24.65;43.62;100553.66;5080303;28;20055;-60
2022/11/07 13:35:37;;;;;;;38.75;6.72;;;;;;;24.65;43.75;100552.75;5081315;28;20112;-61
2022/11/07 13:38:16;;;;;;;31.88;7.22;;;;;;;24.61;43.45;100538.75;5084514;28;20461;-58
2022/11/07 13:40:47;;;;;;;29.50;6.65;;;;;;;24.63;44.14;100539.63;5076725;28;20100;-61
2022/11/07 13:43:23;;;;;;;32.42;6.82;;;;;;;24.64;43.97;100532.63;5077710;28;20103;-60
2022/11/07 13:46:13;;;;;;;28.08;6.93;;;;;;;24.69;43.88;100547.50;5079077;28;20465;-60
2022/11/07 13:48:56;;;;;;;24.05;6.28;;;;;;;24.72;43.96;100547.56;5081845;28;20492;-60
2022/11/07 13:51:28;;;;;;;28.42;6.55;;;;;;;24.78;43.68;100535.34;5082236;28;20039;-60
2022/11/07 13:54:17;;;;;;;26.20;5.25;;;;;;;24.87;43.66;100536.25;5082012;28;20051;-59
2022/11/07 13:56:51;;;;;;;18.60;4.75;;;;;;;24.79;43.37;100535.34;5071110;28;20086;-59
2022/11/07 13:59:43;;;;;;;24.23;5.22;;;;;;;24.76;43.66;100531.84;5060244;28;20107;-60
2022/11/07 14:02:31;;;;;;;23.27;4.55;;;;;;;24.79;43.46;100531.84;5080365;28;20094;-60
2022/11/07 14:05:05;;;;;;;19.35;4.50;;;;;;;24.79;43.62;100509.09;5079527;28;20078;-60
2022/11/07 14:07:36;;;;;;;15.25;3.92;;;;;;;24.76;43.34;100509.09;5082152;28;20533;-59
2022/11/07 14:10:07;;;;;;;16.27;4.03;;;;;;;24.69;43.67;100499.44;5083018;28;20032;-59
2022/11/07 14:12:38;;;;;;;15.40;3.72;;;;;;;24.72;43.49;100500.34;5079648;28;20029;-60
2022/11/07 14:15:15;;;;;;;19.60;4.60;;;;;;;24.80;43.35;100495.13;5082901;28;20032;-60
2022/11/07 14:17:44;;;;;;;19.70;5.32;;;;;;;24.81;43.10;100489.00;5083900;28;20027;-60
2022/11/07 14:20:30;;;;;;;18.85;4.25;;;;;;;24.78;43.04;100482.88;5083292;28;20030;-60
2022/11/07 14:23:22;;;;;;;15.23;3.80;;;;;;;24.76;43.53;100482.00;5078822;28;20056;-60
2022/11/07 14:26:29;;;;;;;15.52;3.90;;;;;;;24.82;43.28;100468.91;5084396;28;20034;-59
2022/11/07 14:28:59;;;;;;;16.33;3.72;;;;;;;24.87;42.79;100461.91;5077481;28;20050;-60